Terminal Aerodrome Forecast
Issued by NWS Jacksonville, FL

Home | Current Version | Previous Version | Text Only | Print | Product List | Glossary On
Versions: 1 2 3 4 5 6 7 8 9 10 11 12 13 14 15 16 17 18 19 20 21 22 23
000
FTUS42 KJAX 201700
TAFGNV
TAF
KGNV 201720Z 2018/2118 03010KT P6SM VCSH BKN025 BKN040
      TEMPO 2018/2022 04015G25KT 3SM SHRA OVC020
     FM202200 36008KT P6SM VCSH SCT035 BKN150
     FM210300 32004KT P6SM SCT025=

USA.gov is the U.S. government's official web portal to all federal, state and local government web resources and services.